createdAt,value
2023-01-28T00:02:14.127Z,97720.41
2023-01-28T00:04:41.022Z,97730.00
2023-01-28T00:07:07.965Z,97730.94
2023-01-28T00:09:34.931Z,97736.66
2023-01-28T00:12:01.802Z,97732.38
2023-01-28T00:14:29.651Z,97740.44
2023-01-28T00:16:56.704Z,97746.03
2023-01-28T00:19:24.246Z,97751.47
2023-01-28T00:21:51.123Z,97755.31
2023-01-28T00:24:18.083Z,97762.00
2023-01-28T00:26:47.932Z,97758.06
2023-01-28T00:29:17.974Z,97759.06
2023-01-28T00:31:45.130Z,97763.81
2023-01-28T00:34:12.052Z,97770.47
2023-01-28T00:36:42.336Z,97766.94
2023-01-28T00:39:13.951Z,97769.34
2023-01-28T00:41:42.213Z,97761.97
2023-01-28T00:44:09.272Z,97771.47
2023-01-28T00:46:36.431Z,97772.91
2023-01-28T00:49:03.413Z,97773.53
2023-01-28T00:51:30.444Z,97771.59
2023-01-28T00:53:57.306Z,97773.25
2023-01-28T00:56:24.204Z,97767.47
2023-01-28T00:58:51.216Z,97767.88
2023-01-28T01:01:21.475Z,97775.28
2023-01-28T01:03:57.517Z,97767.88
2023-01-28T01:06:25.571Z,97768.25
2023-01-28T01:08:54.833Z,97764.25
2023-01-28T01:11:21.856Z,97758.34
2023-01-28T01:13:55.335Z,97772.38
2023-01-28T01:16:27.744Z,97767.44
2023-01-28T01:18:55.767Z,97762.41
2023-01-28T01:21:28.637Z,97775.41
2023-01-28T01:23:55.690Z,97767.69
2023-01-28T01:26:23.332Z,97766.38
2023-01-28T01:28:51.723Z,97772.72
2023-01-28T01:31:22.661Z,97776.44
2023-01-28T01:33:51.037Z,97773.88
2023-01-28T01:36:20.318Z,97777.47
2023-01-28T01:38:47.744Z,97767.00
2023-01-28T01:41:30.726Z,97782.03
2023-01-28T01:44:00.655Z,97764.63
2023-01-28T01:46:40.245Z,97778.69
2023-01-28T01:49:21.423Z,97780.50
2023-01-28T01:52:10.772Z,97784.69
2023-01-28T01:54:41.082Z,97778.13
2023-01-28T01:57:13.521Z,97791.34
2023-01-28T01:59:42.498Z,97792.31
2023-01-28T02:02:11.938Z,97794.63
2023-01-28T02:04:44.870Z,97799.97
2023-01-28T02:07:18.811Z,97796.56
2023-01-28T02:09:45.737Z,97800.38
2023-01-28T02:12:18.300Z,97786.78
2023-01-28T02:14:53.290Z,97805.13
2023-01-28T02:17:20.896Z,97798.66
2023-01-28T02:19:54.541Z,97803.69
2023-01-28T02:22:42.116Z,97798.06
2023-01-28T02:25:40.522Z,97793.81
2023-01-28T02:28:07.230Z,97798.97
2023-01-28T02:30:43.248Z,97805.25
2023-01-28T02:33:35.199Z,97790.63
2023-01-28T02:36:16.590Z,97794.94
2023-01-28T02:38:50.967Z,97809.81
2023-01-28T02:41:42.840Z,97803.19
2023-01-28T02:44:09.975Z,97808.50
2023-01-28T02:46:56.624Z,97801.97
2023-01-28T02:49:30.613Z,97797.72
2023-01-28T02:52:19.025Z,97807.28
2023-01-28T02:55:23.934Z,97807.75
2023-01-28T02:57:50.949Z,97801.50
2023-01-28T03:00:17.933Z,97800.16
2023-01-28T03:02:54.557Z,97801.28
2023-01-28T03:05:36.831Z,97808.56
2023-01-28T03:08:27.069Z,97798.91
2023-01-28T03:11:15.742Z,97797.59
2023-01-28T03:14:02.961Z,97797.91
2023-01-28T03:16:51.311Z,97799.22
2023-01-28T03:19:38.812Z,97802.59
2023-01-28T03:22:24.141Z,97815.09
2023-01-28T03:25:11.750Z,97814.13
2023-01-28T03:28:08.997Z,97811.75
2023-01-28T03:31:00.916Z,97813.91
2023-01-28T03:33:56.120Z,97821.63
2023-01-28T03:36:42.817Z,97826.34
2023-01-28T03:39:21.885Z,97822.03
2023-01-28T03:42:09.795Z,97826.59
2023-01-28T03:45:10.038Z,97825.56
2023-01-28T03:47:37.500Z,97819.91
2023-01-28T03:50:07.309Z,97821.03
2023-01-28T03:52:42.953Z,97828.84
2023-01-28T03:55:24.102Z,97823.31
2023-01-28T03:57:50.975Z,97835.94
2023-01-28T04:00:22.053Z,97831.56
2023-01-28T04:02:49.097Z,97834.31
2023-01-28T04:05:20.303Z,97834.22
2023-01-28T04:07:51.829Z,97826.75
2023-01-28T04:10:50.971Z,97835.84
2023-01-28T04:13:23.619Z,97833.25
2023-01-28T04:15:51.589Z,97844.50
2023-01-28T04:18:19.987Z,97844.75
2023-01-28T04:20:50.196Z,97848.44
2023-01-28T04:23:17.948Z,97851.25
2023-01-28T04:25:45.145Z,97854.13
2023-01-28T04:28:14.311Z,97852.84
2023-01-28T04:30:41.460Z,97850.53
2023-01-28T04:33:31.511Z,97855.28
2023-01-28T04:36:03.167Z,97854.28
2023-01-28T04:38:53.373Z,97859.41
2023-01-28T04:41:49.813Z,97865.06
2023-01-28T04:44:27.340Z,97871.13
2023-01-28T04:47:16.785Z,97872.00
2023-01-28T05:09:32.059Z,97900.25
2023-01-28T05:11:58.971Z,97899.13
2023-01-28T05:14:25.880Z,97898.81
2023-01-28T05:17:15.550Z,97898.81
2023-01-28T05:19:43.707Z,97903.88
2023-01-28T05:22:17.519Z,97903.38
2023-01-28T05:24:50.067Z,97906.44
2023-01-28T05:27:16.950Z,97907.56
2023-01-28T05:29:44.099Z,97901.13
2023-01-28T05:32:11.168Z,97916.53
2023-01-28T05:34:38.095Z,97909.69
2023-01-28T05:37:10.513Z,97912.69
2023-01-28T05:39:38.635Z,97915.00
2023-01-28T05:42:07.994Z,97910.47
2023-01-28T05:44:39.844Z,97914.16
2023-01-28T05:47:21.769Z,97928.38
2023-01-28T05:49:58.959Z,97926.94
2023-01-28T05:52:43.824Z,97933.00
2023-01-28T05:55:20.929Z,97932.50
2023-01-28T05:57:48.644Z,97935.50
2023-01-28T06:00:17.864Z,97935.88
2023-01-28T06:02:45.991Z,97947.75
2023-01-28T06:05:15.224Z,97946.56
2023-01-28T06:07:48.519Z,97942.28
2023-01-28T06:10:18.153Z,97948.88
2023-01-28T06:12:45.469Z,97949.41
2023-01-28T06:15:38.638Z,97954.13
2023-01-28T06:18:25.742Z,97959.94
2023-01-28T06:20:54.909Z,97962.53
2023-01-28T06:23:21.812Z,97958.06
2023-01-28T06:25:53.995Z,97960.28
2023-01-28T06:28:20.933Z,97970.66
2023-01-28T06:30:51.828Z,97956.06
2023-01-28T06:33:19.764Z,97964.81
2023-01-28T06:35:46.771Z,97960.19
2023-01-28T06:38:14.001Z,97962.59
2023-01-28T06:40:40.859Z,97963.34
2023-01-28T06:43:07.852Z,97964.03
2023-01-28T06:45:34.688Z,97974.59
2023-01-28T06:48:04.181Z,97982.56
2023-01-28T06:50:31.267Z,97981.78
2023-01-28T06:52:58.350Z,97989.94
2023-01-28T06:55:25.249Z,97991.00
2023-01-28T06:57:52.247Z,97989.31
2023-01-28T07:00:19.596Z,98002.06
2023-01-28T07:02:48.901Z,97997.28
2023-01-28T07:05:15.947Z,97995.22
2023-01-28T07:07:42.791Z,98011.56
2023-01-28T07:10:11.222Z,98008.69
2023-01-28T07:12:38.284Z,98012.19
2023-01-28T07:15:05.185Z,98017.81
2023-01-28T07:17:34.909Z,98011.28
2023-01-28T07:20:01.758Z,98007.72
2023-01-28T07:22:30.343Z,98013.34
2023-01-28T07:24:59.373Z,98022.94
2023-01-28T07:27:26.584Z,98026.53
2023-01-28T07:29:53.417Z,98025.59
2023-01-28T07:32:20.758Z,98022.91
2023-01-28T07:34:47.543Z,98021.81
2023-01-28T07:37:15.193Z,98032.84
2023-01-28T07:39:42.028Z,98034.28
2023-01-28T07:42:09.827Z,98038.69
2023-01-28T07:44:38.799Z,98030.41
2023-01-28T07:47:08.772Z,98037.53
2023-01-28T07:49:35.931Z,98043.81
2023-01-28T07:52:02.953Z,98045.44
2023-01-28T07:54:29.754Z,98036.66
2023-01-28T07:56:56.899Z,98042.00
2023-01-28T07:59:23.779Z,98043.91
2023-01-28T08:01:51.138Z,98047.75
2023-01-28T08:04:19.108Z,98043.84
2023-01-28T08:06:46.422Z,98040.28
2023-01-28T08:09:13.374Z,98045.50
2023-01-28T08:11:40.858Z,98053.19
2023-01-28T08:14:10.736Z,98045.03
2023-01-28T08:16:38.081Z,98056.38
2023-01-28T08:19:06.132Z,98060.94
2023-01-28T08:21:32.919Z,98056.28
2023-01-28T08:23:59.968Z,98058.78
2023-01-28T08:26:27.416Z,98069.00
2023-01-28T08:28:54.609Z,98065.34
2023-01-28T08:31:21.334Z,98078.78
2023-01-28T08:33:49.569Z,98073.81
2023-01-28T08:36:16.361Z,98068.66
2023-01-28T08:38:43.749Z,98069.28
2023-01-28T08:41:10.882Z,98068.44
2023-01-28T08:43:38.063Z,98070.06
2023-01-28T08:46:11.059Z,98074.19
2023-01-28T08:48:38.647Z,98069.97
2023-01-28T08:51:05.709Z,98072.84
2023-01-28T08:53:33.049Z,98091.66
2023-01-28T08:55:59.849Z,98092.78
2023-01-28T08:58:27.417Z,98086.31
2023-01-28T09:00:56.077Z,98088.69
2023-01-28T09:03:23.245Z,98083.31
2023-01-28T09:05:53.311Z,98079.50
2023-01-28T09:08:20.832Z,98085.66
2023-01-28T09:10:47.892Z,98087.44
2023-01-28T09:13:16.333Z,98087.88
2023-01-28T09:15:43.729Z,98088.47
2023-01-28T09:18:11.031Z,98094.06
2023-01-28T09:20:38.129Z,98098.16
2023-01-28T09:23:05.582Z,98086.31
2023-01-28T09:25:32.974Z,98097.06
2023-01-28T09:28:00.249Z,98088.56
2023-01-28T09:30:31.691Z,98080.03
2023-01-28T09:32:58.944Z,98083.97
2023-01-28T09:35:26.523Z,98092.00
2023-01-28T09:37:57.495Z,98082.47
2023-01-28T09:40:36.355Z,98089.94
2023-01-28T09:43:09.216Z,98094.53
2023-01-28T09:45:42.625Z,98090.56
2023-01-28T09:48:21.755Z,98083.47
2023-01-28T09:50:54.881Z,98086.41
2023-01-28T09:53:28.636Z,98089.78
2023-01-28T09:56:02.760Z,98087.06
2023-01-28T09:58:29.777Z,98087.25
2023-01-28T10:01:16.877Z,98090.06
2023-01-28T10:04:12.340Z,98089.56
2023-01-28T10:07:07.881Z,98088.84
2023-01-28T10:09:34.779Z,98087.50
2023-01-28T10:12:14.000Z,98080.34
2023-01-28T10:15:10.001Z,98089.72
2023-01-28T10:17:45.340Z,98076.38
2023-01-28T10:20:12.238Z,98075.50
2023-01-28T10:22:47.186Z,98084.59
2023-01-28T10:25:22.589Z,98090.72
2023-01-28T10:27:51.429Z,98087.75
2023-01-28T10:30:22.194Z,98080.72
2023-01-28T10:33:06.704Z,98085.84
2023-01-28T10:35:39.622Z,98088.19
2023-01-28T10:38:11.198Z,98088.31
2023-01-28T10:40:40.770Z,98085.06
2023-01-28T10:43:09.049Z,98089.25
2023-01-28T10:45:43.307Z,98090.97
2023-01-28T10:48:30.679Z,98091.53
2023-01-28T10:51:02.327Z,98086.00
2023-01-28T10:53:36.015Z,98084.16
2023-01-28T10:56:05.993Z,98075.59
2023-01-28T10:58:36.583Z,98073.97
2023-01-28T11:01:07.701Z,98078.25
2023-01-28T11:03:37.273Z,98083.25
2023-01-28T11:06:04.356Z,98074.03
2023-01-28T11:08:31.742Z,98070.03
2023-01-28T11:10:58.952Z,98068.41
2023-01-28T11:13:30.154Z,98069.38
2023-01-28T11:16:16.775Z,98066.94
2023-01-28T11:18:55.407Z,98065.41
2023-01-28T11:21:28.236Z,98068.34
2023-01-28T11:24:20.132Z,98062.22
2023-01-28T11:26:51.332Z,98054.53
2023-01-28T11:29:39.969Z,98056.59
2023-01-28T11:32:18.266Z,98049.84
2023-01-28T11:34:54.096Z,98052.59
2023-01-28T11:37:23.076Z,98049.06
2023-01-28T11:40:15.019Z,98045.56
2023-01-28T11:42:42.918Z,98046.53
2023-01-28T11:45:17.366Z,98043.16
2023-01-28T11:48:20.331Z,98037.94
2023-01-28T11:51:19.397Z,98038.41
2023-01-28T11:53:56.070Z,98038.84
2023-01-28T11:56:50.323Z,98039.72
2023-01-28T11:59:34.251Z,98028.13
2023-01-28T12:02:41.201Z,98026.44
2023-01-28T12:05:46.553Z,98025.53
2023-01-28T12:08:26.867Z,98023.25
2023-01-28T12:11:18.200Z,98020.91
2023-01-28T12:14:03.790Z,98016.66
2023-01-28T12:17:01.515Z,98013.00
2023-01-28T12:20:16.092Z,98014.56
2023-01-28T12:22:58.272Z,98019.03
2023-01-28T12:25:49.998Z,98014.09
2023-01-28T12:28:44.804Z,98018.47
2023-01-28T12:31:32.751Z,98010.72
2023-01-28T12:34:05.425Z,98010.00
2023-01-28T12:36:54.190Z,98007.63
2023-01-28T12:39:36.598Z,98009.88
2023-01-28T12:42:13.104Z,98008.44
2023-01-28T12:44:47.359Z,98012.41
2023-01-28T12:47:20.391Z,98005.50
2023-01-28T12:49:53.864Z,98005.81
2023-01-28T12:52:29.256Z,98002.22
2023-01-28T12:55:14.819Z,98007.31
2023-01-28T12:57:43.582Z,98017.69
2023-01-28T13:00:28.522Z,98011.97
2023-01-28T13:03:22.813Z,98015.84
2023-01-28T13:05:54.152Z,98013.59
2023-01-28T13:08:26.307Z,98016.63
2023-01-28T13:10:55.501Z,98017.34
2023-01-28T13:13:34.415Z,98024.44
2023-01-28T13:16:04.392Z,98028.56
2023-01-28T13:18:48.470Z,98029.69
2023-01-28T13:21:26.400Z,98033.28
2023-01-28T13:24:05.340Z,98023.00
2023-01-28T13:26:47.231Z,98025.78
2023-01-28T13:29:24.962Z,98037.84
2023-01-28T13:31:54.692Z,98038.69
2023-01-28T13:34:29.191Z,98039.09
2023-01-28T13:36:59.041Z,98042.22
2023-01-28T13:39:27.877Z,98039.28
2023-01-28T13:42:21.074Z,98047.75
2023-01-28T13:44:48.387Z,98035.06
2023-01-28T13:47:21.864Z,98044.50
2023-01-28T13:49:58.774Z,98041.84
2023-01-28T13:52:32.477Z,98055.97
2023-01-28T13:55:04.841Z,98049.34
2023-01-28T13:58:01.980Z,98055.06
2023-01-28T14:00:50.350Z,98064.13
2023-01-28T14:03:35.911Z,98067.09
2023-01-28T14:06:13.546Z,98066.09
2023-01-28T14:09:31.621Z,98064.81
2023-01-28T14:12:22.774Z,98081.69
2023-01-28T14:15:08.183Z,98073.28
2023-01-28T14:17:45.987Z,98071.22
2023-01-28T14:20:27.562Z,98078.28
2023-01-28T14:23:02.485Z,98089.47
2023-01-28T14:25:47.683Z,98088.34
2023-01-28T14:28:25.959Z,98086.00
2023-01-28T14:31:05.945Z,98088.06
2023-01-28T14:33:37.625Z,98093.16
2023-01-28T14:36:05.315Z,98100.44
2023-01-28T14:38:38.563Z,98095.56
2023-01-28T14:41:06.235Z,98099.41
2023-01-28T14:43:33.235Z,98094.13
2023-01-28T14:46:28.797Z,98105.09
2023-01-28T14:49:13.957Z,98111.72
2023-01-28T14:51:52.663Z,98122.69
2023-01-28T14:54:49.490Z,98125.16
2023-01-28T14:57:28.179Z,98125.50
2023-01-28T14:59:58.340Z,98127.31
2023-01-28T15:02:27.304Z,98129.03
2023-01-28T15:04:55.288Z,98129.78
2023-01-28T15:07:25.075Z,98139.84
2023-01-28T15:10:05.869Z,98139.09
2023-01-28T15:12:39.645Z,98146.16
2023-01-28T15:15:18.117Z,98151.50
2023-01-28T15:17:47.584Z,98139.84
2023-01-28T15:20:21.916Z,98146.38
2023-01-28T15:22:50.391Z,98153.88
2023-01-28T15:25:22.975Z,98146.78
2023-01-28T15:27:52.490Z,98156.84
2023-01-28T15:30:26.972Z,98156.09
2023-01-28T15:33:12.835Z,98149.91
2023-01-28T15:35:47.538Z,98168.63
2023-01-28T15:38:14.726Z,98169.03
2023-01-28T15:40:44.137Z,98169.03
2023-01-28T15:43:19.916Z,98170.31
2023-01-28T15:45:49.733Z,98174.13
2023-01-28T15:48:17.299Z,98179.03
2023-01-28T15:50:45.556Z,98189.75
2023-01-28T15:53:16.960Z,98185.19
2023-01-28T15:55:45.082Z,98185.97
2023-01-28T15:58:30.274Z,98193.50
2023-01-28T16:01:11.066Z,98202.34
2023-01-28T16:03:40.620Z,98200.75
2023-01-28T16:06:16.931Z,98208.03
2023-01-28T16:08:51.033Z,98215.19
2023-01-28T16:11:23.914Z,98208.41
2023-01-28T16:13:51.176Z,98215.69
2023-01-28T16:16:27.623Z,98223.78
2023-01-28T16:18:56.260Z,98223.13
2023-01-28T16:21:27.818Z,98229.31
2023-01-28T16:24:20.228Z,98233.31
2023-01-28T16:27:18.823Z,98233.72
2023-01-28T16:29:45.705Z,98230.06
2023-01-28T16:32:30.873Z,98232.88
2023-01-28T16:34:58.366Z,98234.75
2023-01-28T16:39:59.017Z,98239.06
2023-01-28T16:42:28.449Z,98245.25
2023-01-28T16:44:55.233Z,98251.34
2023-01-28T16:47:22.256Z,98249.56
2023-01-28T16:49:49.237Z,98244.97
2023-01-28T16:52:18.522Z,98243.16
2023-01-28T16:54:45.711Z,98244.59
2023-01-28T16:57:22.831Z,98256.59
2023-01-28T16:59:49.682Z,98250.88
2023-01-28T17:02:17.947Z,98254.09
2023-01-28T17:04:44.850Z,98259.53
2023-01-28T17:07:11.669Z,98267.75
2023-01-28T17:09:38.518Z,98264.50
2023-01-28T17:12:05.774Z,98264.19
2023-01-28T17:14:32.688Z,98263.72
2023-01-28T17:17:00.007Z,98271.81
2023-01-28T17:19:26.840Z,98269.91
2023-01-28T17:21:53.709Z,98274.88
2023-01-28T17:24:20.648Z,98276.78
2023-01-28T17:26:47.646Z,98281.25
2023-01-28T17:29:14.564Z,98275.16
2023-01-28T17:31:44.719Z,98285.91
2023-01-28T17:34:12.419Z,98279.06
2023-01-28T17:36:39.257Z,98285.50
2023-01-28T17:39:08.860Z,98297.16
2023-01-28T17:41:35.796Z,98293.50
2023-01-28T17:44:04.634Z,98293.50
2023-01-28T17:46:31.882Z,98286.47
2023-01-28T17:48:58.893Z,98293.91
2023-01-28T17:51:25.763Z,98301.81
2023-01-28T17:53:53.735Z,98300.84
2023-01-28T17:56:24.100Z,98308.47
2023-01-28T17:58:56.307Z,98307.09
2023-01-28T18:01:26.795Z,98309.09
2023-01-28T18:03:56.369Z,98310.41
2023-01-28T18:06:23.352Z,98321.31
2023-01-28T18:08:50.537Z,98329.16
2023-01-28T18:11:19.708Z,98327.34
2023-01-28T18:13:47.159Z,98328.00
2023-01-28T18:16:23.067Z,98329.06
2023-01-28T18:18:50.484Z,98327.34
2023-01-28T18:21:53.787Z,98340.06
2023-01-28T18:24:25.753Z,98340.22
2023-01-28T18:26:55.598Z,98340.59
2023-01-28T18:29:24.261Z,98342.81
2023-01-28T18:31:54.511Z,98347.47
2023-01-28T18:34:22.910Z,98349.44
2023-01-28T18:36:49.945Z,98346.28
2023-01-28T18:39:18.445Z,98351.25
2023-01-28T18:41:45.383Z,98352.47
2023-01-28T18:44:14.476Z,98350.56
2023-01-28T18:46:41.794Z,98357.88
2023-01-28T18:49:08.735Z,98372.56
2023-01-28T18:51:35.604Z,98352.13
2023-01-28T18:54:08.020Z,98371.56
2023-01-28T18:56:36.477Z,98368.97
2023-01-28T18:59:05.528Z,98371.56
2023-01-28T19:01:34.616Z,98362.78
2023-01-28T19:04:02.719Z,98372.91
2023-01-28T19:06:30.916Z,98377.34
2023-01-28T19:09:06.479Z,98385.34
2023-01-28T19:11:36.072Z,98375.28
2023-01-28T19:14:03.167Z,98385.22
2023-01-28T19:16:34.561Z,98385.50
2023-01-28T19:19:01.685Z,98392.72
2023-01-28T19:21:30.694Z,98387.47
2023-01-28T19:24:03.743Z,98382.06
2023-01-28T19:26:31.716Z,98389.16
2023-01-28T19:29:01.700Z,98388.25
2023-01-28T19:31:29.221Z,98394.50
2023-01-28T19:33:58.662Z,98389.16
2023-01-28T19:36:28.495Z,98391.13
2023-01-28T19:39:04.586Z,98394.59
2023-01-28T19:41:31.926Z,98394.06
2023-01-28T19:43:58.877Z,98406.19
2023-01-28T19:46:26.662Z,98409.22
2023-01-28T19:48:54.263Z,98409.19
2023-01-28T19:51:21.640Z,98416.50
2023-01-28T19:53:51.671Z,98416.16
2023-01-28T19:56:20.299Z,98428.75
2023-01-28T19:58:47.811Z,98428.22
2023-01-28T20:01:19.474Z,98430.31
2023-01-28T20:03:57.664Z,98424.47
2023-01-28T20:06:27.750Z,98434.06
2023-01-28T20:09:00.021Z,98430.59
2023-01-28T20:11:27.049Z,98432.84
2023-01-28T20:13:55.832Z,98441.34
2023-01-28T20:16:24.890Z,98434.81
2023-01-28T20:18:54.153Z,98441.78
2023-01-28T20:21:22.254Z,98445.09
2023-01-28T20:23:51.808Z,98444.59
2023-01-28T20:26:21.414Z,98445.38
2023-01-28T20:28:49.483Z,98453.31
2023-01-28T20:31:18.220Z,98445.81
2023-01-28T20:33:45.716Z,98446.69
2023-01-28T20:36:14.444Z,98457.38
2023-01-28T20:38:44.780Z,98454.59
2023-01-28T20:41:18.081Z,98463.06
2023-01-28T20:43:52.317Z,98455.31
2023-01-28T20:46:25.321Z,98460.97
2023-01-28T20:48:54.828Z,98458.91
2023-01-28T20:51:27.589Z,98468.44
2023-01-28T20:53:55.553Z,98462.97
2023-01-28T20:56:24.138Z,98469.66
2023-01-28T20:58:56.904Z,98469.09
2023-01-28T21:01:27.779Z,98465.78
2023-01-28T21:04:05.921Z,98469.09
2023-01-28T21:06:33.845Z,98480.59
2023-01-28T21:09:03.647Z,98477.84
2023-01-28T21:11:30.858Z,98468.09
2023-01-28T21:13:59.101Z,98481.66
2023-01-28T21:16:26.149Z,98482.44
2023-01-28T21:18:55.550Z,98483.94
2023-01-28T21:21:27.446Z,98483.66
2023-01-28T21:23:58.221Z,98491.78
2023-01-28T21:26:26.103Z,98482.66
2023-01-28T21:28:53.034Z,98491.72
2023-01-28T21:31:22.757Z,98486.47
2023-01-28T21:33:50.859Z,98485.69
2023-01-28T21:36:19.350Z,98486.41
2023-01-28T21:38:53.257Z,98487.03
2023-01-28T21:41:20.579Z,98483.59
2023-01-28T21:43:54.171Z,98496.38
2023-01-28T21:46:22.775Z,98492.63
2023-01-28T21:48:53.122Z,98491.28
2023-01-28T21:51:39.727Z,98488.16
2023-01-28T21:54:11.747Z,98490.63
2023-01-28T21:56:38.990Z,98487.16
2023-01-28T21:59:24.663Z,98490.53
2023-01-28T22:01:51.616Z,98487.50
2023-01-28T22:04:18.585Z,98494.78
2023-01-28T22:06:45.893Z,98486.97
2023-01-28T22:09:14.111Z,98495.50
2023-01-28T22:11:42.911Z,98493.34
2023-01-28T22:14:11.016Z,98484.19
2023-01-28T22:16:38.050Z,98485.53
2023-01-28T22:19:05.665Z,98481.84
2023-01-28T22:21:41.083Z,98478.41
2023-01-28T22:24:10.868Z,98482.50
2023-01-28T22:26:38.784Z,98479.69
2023-01-28T22:29:08.551Z,98494.31
2023-01-28T22:31:36.264Z,98481.78
2023-01-28T22:34:03.928Z,98482.69
2023-01-28T22:36:32.975Z,98474.47
2023-01-28T22:39:02.249Z,98481.22
2023-01-28T22:41:29.744Z,98481.34
2023-01-28T22:43:56.909Z,98486.22
2023-01-28T22:46:24.972Z,98485.63
2023-01-28T22:48:52.011Z,98478.06
2023-01-28T22:51:22.036Z,98485.41
2023-01-28T22:53:50.539Z,98484.25
2023-01-28T22:56:19.980Z,98481.59
2023-01-28T22:58:47.746Z,98480.72
2023-01-28T23:01:16.222Z,98475.25
2023-01-28T23:03:48.625Z,98472.19
2023-01-28T23:06:18.929Z,98480.00
2023-01-28T23:08:46.489Z,98478.16
2023-01-28T23:11:25.154Z,98480.47
2023-01-28T23:14:16.450Z,98484.69
2023-01-28T23:17:02.105Z,98487.69
2023-01-28T23:19:47.915Z,98481.78
2023-01-28T23:22:41.889Z,98476.94
2023-01-28T23:25:10.323Z,98469.03
2023-01-28T23:27:37.691Z,98480.44
2023-01-28T23:30:10.069Z,98483.09
2023-01-28T23:32:43.912Z,98478.66
2023-01-28T23:35:13.757Z,98483.75
2023-01-28T23:37:41.666Z,98485.34
2023-01-28T23:40:09.408Z,98476.84
2023-01-28T23:42:36.583Z,98473.63
2023-01-28T23:45:04.408Z,98480.38
2023-01-28T23:47:31.755Z,98482.97
2023-01-28T23:49:59.512Z,98483.28
2023-01-28T23:52:26.887Z,98475.47
2023-01-28T23:54:53.988Z,98478.31
2023-01-28T23:57:20.877Z,98469.06
2023-01-28T23:59:47.904Z,98477.00
